SondeTracker

Meteorological Radiosondes Database

Operations

Sounding was ended - last measurement: 2022-12-06 13:23:17z

MAP
About Radiosonde

Number: U1840848

Launch Site: Anchorage [AK] (US)

Type: RS41

AUX: NO

Frequency: 405.301 MHz

Max Speed: 130 km/h at 34883 m

Average Speed: 66.98 km/h

Max Altitude: 34998 m

Average Ascent Speed: 4.93 m/s

Average Descent Speed: 16.54 m/s

Status: UNKNOWN

Status Changes
Launch Site Type AUX Frequency Status Finder Landing Point Description Changes made by
APRS Statistics

Received Frames: 164

First Frame [UTC]: 2022-12-06 11:16:16z

Last Frame [UTC]: 2022-12-06 13:23:17z

Receivers: KL4XQ

Flight Time: 02:07:01 h

Distance From First Measurement: 73.77 km

Nearest City: Anchorage [AK] (US) [33.58 km]

Nearest Hunter: KL4XQ [45.00 km]

Ground Altitude: 105 m

Distance from QTH: 0.00 km

APRS Data
Receiver Number Date/Time [UTC] φ λ Course [°] Speed [km/h] Altitude [m] Description
KL4XQU18408482022-12-06 13:23:1761.3025-148.567597612270Clb=-13.5m/s t=-51.5C h=1.9% p=176.7hPa 405.301 MHz Type=RS41-SGP Radiosonde
KL4XQU18408482022-12-06 13:22:3861.3004-148.574453712714Clb=-15.0m/s t=-50.8C h=1.7% p=165.3hPa 405.301 MHz Type=RS41-SGP Radiosonde
KL4XQU18408482022-12-06 13:21:5661.2971-148.578325713183Clb=-15.0m/s t=-50.9C h=1.5% p=153.7hPa 405.301 MHz Type=RS41-SGP Radiosonde
KL4XQU18408482022-12-06 13:21:2161.2936-148.583315413681Clb=-15.1m/s t=-52.3C h=1.4% p=142.4hPa 405.301 MHz Type=RS41-SGP Radiosonde
KL4XQU18408482022-12-06 13:20:4261.2904-148.589475414163Clb=-16.8m/s t=-51.6C h=1.1% p=132.2hPa 405.301 MHz Type=RS41-SGP Radiosonde
KL4XQU18408482022-12-06 13:19:5361.2877-148.594433914672Clb=-20.3m/s t=-50.1C h=1.0% p=122.2hPa 405.301 MHz Type=RS41-SGP Radiosonde
KL4XQU18408482022-12-06 13:19:1161.2853-148.599554415266Clb=-14.8m/s t=-51.0C h=1.1% p=111.7hPa 405.301 MHz Type=RS41-SGP Radiosonde
KL4XQU18408482022-12-06 13:18:3461.2843-148.602301715801Clb=-17.2m/s t=-51.2C h=1.1% p=102.8hPa 405.301 MHz Type=RS41-SGP Radiosonde
KL4XQU18408482022-12-06 13:17:5161.2826-148.605533916374Clb=-18.9m/s t=-52.6C h=1.1% p=94.2hPa 405.301 MHz Type=RS41-SGP Radiosonde
KL4XQU18408482022-12-06 13:17:0461.2812-148.611903916990Clb=-22.3m/s t=-53.6C h=1.1% p=85.9hPa 405.301 MHz Type=RS41-SGP Radiosonde
KL4XQU18408482022-12-06 13:16:2461.2809-148.616933317549Clb=-16.1m/s t=-54.3C h=1.1% p=78.6hPa 405.301 MHz Type=RS41-SGP Radiosonde
KL4XQU18408482022-12-06 13:15:4561.2817-148.6211252018007Clb=-16.9m/s t=-53.5C h=1.0% p=73.2hPa 405.301 MHz Type=RS41-SGP Radiosonde
KL4XQU18408482022-12-06 13:15:0061.2819-148.624954618607Clb=-18.7m/s t=-54.6C h=1.0% p=66.6hPa 405.301 MHz Type=RS41-SGP Radiosonde
KL4XQU18408482022-12-06 13:14:2061.2822-148.6281011519156Clb=-17.2m/s t=-53.6C h=1.0% p=61.3hPa 405.301 MHz Type=RS41-SGP Radiosonde
KL4XQU18408482022-12-06 13:13:4061.2822-148.6331172419926Clb=-21.4m/s t=-55.6C h=1.1% p=54.2hPa 405.301 MHz Type=RS41-SGP Radiosonde
KL4XQU18408482022-12-06 13:12:5261.283-148.635882820415Clb=-22.2m/s t=-55.8C h=1.0% p=50.2hPa 405.301 MHz Type=RS41-SGP Radiosonde
KL4XQU18408482022-12-06 13:12:1161.2846-148.6461304121699Clb=-21.7m/s t=-55.0C h=1.0% p=41.1hPa 405.301 MHz Type=RS41-SGP Radiosonde
KL4XQU18408482022-12-06 13:11:5961.285-148.6471294621811Clb=-23.5m/s t=-54.5C h=0.9% p=40.3hPa 405.300 MHz Type=RS41-SGP Radiosonde
KL4XQU18408482022-12-06 13:11:5161.2875-148.6511523022487Clb=-22.0m/s t=-54.4C h=0.9% p=36.3hPa 405.300 MHz Type=RS41-SGP Radiosonde
KL4XQU18408482022-12-06 13:11:4561.289-148.651641123179Clb=-22.4m/s t=-56.3C h=0.9% p=32.7hPa 405.301 MHz Type=RS41-SGP Radiosonde
KL4XQU18408482022-12-06 13:11:3861.2899-148.6541274423902Clb=-21.2m/s t=-55.7C h=0.9% p=29.2hPa 405.300 MHz Type=RS41-SGP Radiosonde
KL4XQU18408482022-12-06 13:11:3761.2926-148.6591264424579Clb=-27.8m/s t=-56.7C h=0.9% p=26.2hPa 405.301 MHz Type=RS41-SGP Radiosonde
KL4XQU18408482022-12-06 13:11:2161.2947-148.6651243725520Clb=-22.2m/s t=-58.7C h=1.0% p=22.6hPa 405.300 MHz Type=RS41-SGP Radiosonde
KL4XQU18408482022-12-06 13:10:4261.2968-148.6711286926094Clb=-23.4m/s t=-59.5C h=1.1% p=20.7hPa 405.300 MHz Type=RS41-SGP Radiosonde
KL4XQU18408482022-12-06 13:08:5861.3052-148.6861505427858Clb=-24.0m/s t=-62.4C h=1.1% p=15.6hPa 405.300 MHz Type=RS41-SGP Radiosonde
KL4XQU18408482022-12-06 13:08:0261.3072-148.6891395928267Clb=-21.5m/s t=-64.1C h=1.3% p=14.6hPa 405.300 MHz Type=RS41-SGP Radiosonde
KL4XQU18408482022-12-06 13:07:0461.3112-148.6971318729068Clb=-22.7m/s t=-62.7C h=1.1% p=12.9hPa 405.300 MHz Type=RS41-SGP Radiosonde
KL4XQU18408482022-12-06 13:06:1761.3158-148.7051378029716Clb=-23.6m/s t=-64.9C h=1.3% p=11.6hPa 405.300 MHz Type=RS41-SGP Radiosonde
KL4XQU18408482022-12-06 13:05:3061.32-148.7161339830407Clb=-23.4m/s t=-63.9C h=1.2% p=10.3hPa 405.300 MHz Type=RS41-SGP Radiosonde
KL4XQU18408482022-12-06 13:04:4361.3255-148.7251346531158Clb=-22.7m/s t=-65.9C h=1.4% p=9.2hPa 405.300 MHz Type=RS41-SGP Radiosonde
KL4XQU18408482022-12-06 13:03:4461.3301-148.7341428531945Clb=-25.0m/s t=-63.8C h=1.1% p=8.1hPa 405.301 MHz Type=RS41-SGP Radiosonde
KL4XQU18408482022-12-06 13:02:5961.3346-148.7421207232764Clb=-26.4m/s t=-65.7C h=1.5% p=7.1hPa 405.300 MHz Type=RS41-SGP Radiosonde
KL4XQU18408482022-12-06 13:02:0861.3388-148.7521367633598Clb=-27.9m/s t=-64.9C h=1.3% p=6.2hPa 405.301 MHz Type=RS41-SGP Radiosonde
KL4XQU18408482022-12-06 13:01:2261.3436-148.76711910634573Clb=-30.4m/s t=-64.4C h=1.2% p=5.2hPa 405.300 MHz Type=RS41-SGP Radiosonde
KL4XQU18408482022-12-06 13:00:2361.3502-148.78312312234998Clb=5.2m/s t=-65.4C h=1.4% p=4.9hPa 405.300 MHz Type=RS41-SGP Radiosonde
KL4XQU18408482022-12-06 12:59:2561.3559-148.79512713034883Clb=5.9m/s t=-65.1C h=1.3% p=5.0hPa 405.300 MHz Type=RS41-SGP Radiosonde
KL4XQU18408482022-12-06 12:58:1061.3618-148.8091309634725Clb=4.4m/s t=-64.8C h=1.3% p=5.1hPa 405.300 MHz Type=RS41-SGP Radiosonde
KL4XQU18408482022-12-06 12:57:0861.366-148.8231199834580Clb=4.2m/s t=-64.5C h=1.3% p=5.2hPa 405.300 MHz Type=RS41-SGP Radiosonde
KL4XQU18408482022-12-06 12:56:1461.3707-148.8361369434426Clb=4.4m/s t=-63.5C h=1.1% p=5.4hPa 405.300 MHz Type=RS41-SGP Radiosonde
KL4XQU18408482022-12-06 12:55:1961.377-148.85113410934240Clb=5.0m/s t=-64.3C h=1.3% p=5.5hPa 405.300 MHz Type=RS41-SGP Radiosonde
KL4XQU18408482022-12-06 12:54:2561.3826-148.8661278934049Clb=5.3m/s t=-64.5C h=1.2% p=5.7hPa 405.300 MHz Type=RS41-SGP Radiosonde
KL4XQU18408482022-12-06 12:53:2861.3864-148.8781207233875Clb=4.7m/s t=-65.6C h=1.4% p=5.8hPa 405.300 MHz Type=RS41-SGP Radiosonde
KL4XQU18408482022-12-06 12:52:3661.3895-148.8861367433735Clb=6.3m/s t=-65.0C h=1.3% p=6.0hPa 405.300 MHz Type=RS41-SGP Radiosonde
KL4XQU18408482022-12-06 12:51:2561.3938-148.8951468133556Clb=5.7m/s t=-64.7C h=1.3% p=6.2hPa 405.300 MHz Type=RS41-SGP Radiosonde
KL4XQU18408482022-12-06 12:50:2861.3988-148.9041399833377Clb=6.5m/s t=-63.8C h=1.2% p=6.3hPa 405.300 MHz Type=RS41-SGP Radiosonde
KL4XQU18408482022-12-06 12:49:2461.4043-148.9161368733197Clb=6.0m/s t=-65.1C h=1.4% p=6.5hPa 405.300 MHz Type=RS41-SGP Radiosonde
KL4XQU18408482022-12-06 12:48:1861.4081-148.9271178533016Clb=6.2m/s t=-63.7C h=1.2% p=6.7hPa 405.300 MHz Type=RS41-SGP Radiosonde
KL4XQU18408482022-12-06 12:47:1261.4113-148.9391137232832Clb=5.4m/s t=-65.1C h=1.3% p=6.9hPa 405.300 MHz Type=RS41-SGP Radiosonde
KL4XQU18408482022-12-06 12:46:1861.414-148.9471278032650Clb=5.5m/s t=-67.1C h=1.6% p=7.1hPa 405.300 MHz Type=RS41-SGP Radiosonde
KL4XQU18408482022-12-06 12:45:1461.4183-148.9551408932469Clb=4.9m/s t=-66.2C h=1.4% p=7.4hPa 405.300 MHz Type=RS41-SGP Radiosonde
KL4XQU18408482022-12-06 12:44:0661.4233-148.9641539132287Clb=6.0m/s t=-66.4C h=1.5% p=7.6hPa 405.300 MHz Type=RS41-SGP Radiosonde
KL4XQU18408482022-12-06 12:43:5261.4291-148.9711488332092Clb=6.2m/s t=-64.8C h=1.4% p=7.8hPa 405.300 MHz Type=RS41-SGP Radiosonde
KL4XQU18408482022-12-06 12:43:4961.435-148.9814310631900Clb=5.5m/s t=-64.1C h=1.2% p=8.1hPa 405.300 MHz Type=RS41-SGP Radiosonde
KL4XQU18408482022-12-06 12:43:4461.4411-148.9931379831682Clb=5.9m/s t=-66.4C h=1.4% p=8.4hPa 405.300 MHz Type=RS41-SGP Radiosonde
KL4XQU18408482022-12-06 12:43:2961.446-149.0041338031486Clb=5.7m/s t=-66.4C h=1.4% p=8.7hPa 405.300 MHz Type=RS41-SGP Radiosonde
KL4XQU18408482022-12-06 12:43:0561.4492-149.011337031329Clb=4.9m/s t=-66.9C h=1.6% p=8.9hPa 405.300 MHz Type=RS41-SGP Radiosonde
KL4XQU18408482022-12-06 12:42:1761.4552-149.021358131046Clb=7.0m/s t=-65.6C h=1.4% p=9.3hPa 405.300 MHz Type=RS41-SGP Radiosonde
KL4XQU18408482022-12-06 12:41:5161.4756-149.051398730405Clb=5.1m/s t=-63.7C h=1.3% p=10.3hPa 405.300 MHz Type=RS41-SGP Radiosonde
KL4XQU18408482022-12-06 12:41:4761.4837-149.0681288930093Clb=6.1m/s t=-64.2C h=1.3% p=10.9hPa 405.300 MHz Type=RS41-SGP Radiosonde
KL4XQU18408482022-12-06 12:41:4061.4866-149.0771277829955Clb=6.8m/s t=-64.0C h=1.2% p=11.1hPa 405.300 MHz Type=RS41-SGP Radiosonde
KL4XQU18408482022-12-06 12:39:0061.499-149.1011468329448Clb=6.7m/s t=-62.9C h=1.2% p=12.0hPa 405.300 MHz Type=RS41-SGP Radiosonde
KL4XQU18408482022-12-06 12:37:5061.5043-149.111318929246Clb=5.8m/s t=-61.9C h=1.1% p=12.4hPa 405.300 MHz Type=RS41-SGP Radiosonde
KL4XQU18408482022-12-06 12:36:4161.5083-149.1171408329085Clb=6.1m/s t=-61.9C h=1.1% p=12.8hPa 405.300 MHz Type=RS41-SGP Radiosonde
KL4XQU18408482022-12-06 12:35:3061.5135-149.1281377628874Clb=6.0m/s t=-61.4C h=1.1% p=13.2hPa 405.300 MHz Type=RS41-SGP Radiosonde
KL4XQU18408482022-12-06 12:34:0561.5167-149.1351467228712Clb=6.6m/s t=-61.9C h=1.1% p=13.5hPa 405.300 MHz Type=RS41-SGP Radiosonde
KL4XQU18408482022-12-06 12:31:5861.5773-149.271343024844Clb=5.3m/s t=-57.3C h=1.0% p=25.2hPa 405.300 MHz Type=RS41-SGP Radiosonde
KL4XQU18408482022-12-06 12:30:5061.58-149.2771454124612Clb=5.1m/s t=-56.9C h=1.0% p=26.1hPa 405.300 MHz Type=RS41-SGP Radiosonde
KL4XQU18408482022-12-06 12:29:3161.5814-149.2791503924512Clb=5.9m/s t=-56.7C h=1.0% p=26.5hPa 405.300 MHz Type=RS41-SGP Radiosonde
KL4XQU18408482022-12-06 12:28:2261.5855-149.2851344824243Clb=6.1m/s t=-56.0C h=0.9% p=27.7hPa 405.300 MHz Type=RS41-SGP Radiosonde
KL4XQU18408482022-12-06 12:23:4161.5915-149.305702423518Clb=5.0m/s t=-56.3C h=0.9% p=31.0hPa 405.300 MHz Type=RS41-SGP Radiosonde
KL4XQU18408482022-12-06 12:22:2561.5914-149.305742223496Clb=5.7m/s t=-56.2C h=0.9% p=31.1hPa 405.300 MHz Type=RS41-SGP Radiosonde
KL4XQU18408482022-12-06 12:21:0961.5918-149.3091501123317Clb=6.6m/s t=-56.1C h=0.9% p=32.0hPa 405.300 MHz Type=RS41-SGP Radiosonde
KL4XQU18408482022-12-06 12:16:0061.5978-149.3051823022650Clb=6.0m/s t=-53.6C h=0.9% p=35.5hPa 405.300 MHz Type=RS41-SGP Radiosonde
KL4XQU18408482022-12-06 12:15:4761.6064-149.3211236522014Clb=4.2m/s t=-54.3C h=0.9% p=39.1hPa 405.301 MHz Type=RS41-SGP Radiosonde
KL4XQU18408482022-12-06 12:15:3961.6093-149.3311314321783Clb=5.6m/s t=-54.8C h=0.9% p=40.6hPa 405.300 MHz Type=RS41-SGP Radiosonde
KL4XQU18408482022-12-06 12:15:1461.6101-149.3331243921701Clb=4.7m/s t=-55.2C h=0.9% p=41.1hPa 405.300 MHz Type=RS41-SGP Radiosonde
KL4XQU18408482022-12-06 12:14:2861.6117-149.3381233721548Clb=6.2m/s t=-55.2C h=0.9% p=42.1hPa 405.300 MHz Type=RS41-SGP Radiosonde
KL4XQU18408482022-12-06 12:13:2161.6131-149.3451065221387Clb=6.4m/s t=-56.0C h=1.0% p=43.2hPa 405.300 MHz Type=RS41-SGP Radiosonde
KL4XQU18408482022-12-06 12:12:0761.6135-149.353844121226Clb=5.3m/s t=-56.4C h=1.0% p=44.2hPa 405.300 MHz Type=RS41-SGP Radiosonde
KL4XQU18408482022-12-06 12:10:5661.613-149.359822821067Clb=4.4m/s t=-56.0C h=1.0% p=45.4hPa 405.300 MHz Type=RS41-SGP Radiosonde
KL4XQU18408482022-12-06 12:09:1361.6214-149.443773717590Clb=5.2m/s t=-54.9C h=1.2% p=78.0hPa 405.300 MHz Type=RS41-SGP Radiosonde
KL4XQU18408482022-12-06 12:07:5261.6205-149.449743717444Clb=5.1m/s t=-54.2C h=1.2% p=79.8hPa 405.300 MHz Type=RS41-SGP Radiosonde
KL4XQU18408482022-12-06 12:06:4161.6197-149.455853317288Clb=5.4m/s t=-53.9C h=1.1% p=81.7hPa 405.300 MHz Type=RS41-SGP Radiosonde
KL4XQU18408482022-12-06 12:05:2661.6193-149.461763917147Clb=4.6m/s t=-53.6C h=1.2% p=83.5hPa 405.300 MHz Type=RS41-SGP Radiosonde
KL4XQU18408482022-12-06 12:04:0761.618-149.467634816987Clb=4.6m/s t=-53.1C h=1.1% p=85.6hPa 405.300 MHz Type=RS41-SGP Radiosonde
KL4XQU18408482022-12-06 12:02:5461.6161-149.475665416821Clb=5.5m/s t=-53.0C h=1.2% p=87.8hPa 405.300 MHz Type=RS41-SGP Radiosonde
KL4XQU18408482022-12-06 12:01:4761.6139-149.481474616685Clb=3.6m/s t=-52.4C h=1.2% p=89.7hPa 405.300 MHz Type=RS41-SGP Radiosonde
KL4XQU18408482022-12-06 12:00:4361.6115-149.485414616556Clb=3.7m/s t=-53.1C h=1.2% p=91.5hPa 405.300 MHz Type=RS41-SGP Radiosonde
KL4XQU18408482022-12-06 11:59:2061.6087-149.49374616420Clb=5.0m/s t=-54.3C h=1.3% p=93.4hPa 405.300 MHz Type=RS41-SGP Radiosonde
KL4XQU18408482022-12-06 11:57:5661.6063-149.494203116277Clb=5.0m/s t=-53.8C h=1.3% p=95.5hPa 405.300 MHz Type=RS41-SGP Radiosonde
KL4XQU18408482022-12-06 11:56:4861.6043-149.494151716132Clb=4.0m/s t=-53.2C h=1.3% p=97.7hPa 405.300 MHz Type=RS41-SGP Radiosonde
KL4XQU18408482022-12-06 11:55:4361.6028-149.496412015988Clb=4.6m/s t=-53.1C h=1.2% p=99.9hPa 405.300 MHz Type=RS41-SGP Radiosonde
KL4XQU18408482022-12-06 11:54:2961.6018-149.499572215846Clb=4.8m/s t=-52.5C h=1.2% p=102.1hPa 405.300 MHz Type=RS41-SGP Radiosonde
KL4XQU18408482022-12-06 11:53:1161.6015-149.502772415693Clb=5.1m/s t=-51.6C h=1.2% p=104.6hPa 405.300 MHz Type=RS41-SGP Radiosonde
KL4XQU18408482022-12-06 11:51:5761.6009-149.507663015556Clb=4.5m/s t=-50.9C h=1.2% p=106.8hPa 405.301 MHz Type=RS41-SGP Radiosonde
KL4XQU18408482022-12-06 11:51:3661.5993-149.513554615394Clb=4.7m/s t=-50.8C h=1.0% p=109.5hPa 405.300 MHz Type=RS41-SGP Radiosonde
KL4XQU18408482022-12-06 11:50:5561.597-149.519445215261Clb=4.6m/s t=-51.0C h=1.2% p=111.7hPa 405.300 MHz Type=RS41-SGP Radiosonde
KL4XQU18408482022-12-06 11:50:3461.5942-149.524344415117Clb=4.0m/s t=-50.2C h=1.2% p=114.2hPa 405.300 MHz Type=RS41-SGP Radiosonde
KL4XQU18408482022-12-06 11:50:0161.5916-149.528353914977Clb=3.9m/s t=-50.5C h=1.2% p=116.7hPa 405.300 MHz Type=RS41-SGP Radiosonde
KL4XQU18408482022-12-06 11:49:5361.5889-149.531323514836Clb=4.6m/s t=-50.2C h=1.2% p=119.2hPa 405.300 MHz Type=RS41-SGP Radiosonde
KL4XQU18408482022-12-06 11:49:4361.5864-149.534444414683Clb=5.2m/s t=-49.9C h=1.1% p=122.0hPa 405.300 MHz Type=RS41-SGP Radiosonde
KL4XQU18408482022-12-06 11:49:0961.5837-149.54394614549Clb=3.9m/s t=-50.3C h=1.2% p=124.6hPa 405.300 MHz Type=RS41-SGP Radiosonde
KL4XQU18408482022-12-06 11:48:5161.5805-149.544364814414Clb=3.8m/s t=-50.6C h=1.2% p=127.2hPa 405.301 MHz Type=RS41-SGP Radiosonde
KL4XQU18408482022-12-06 11:48:4961.5774-149.55465714278Clb=3.9m/s t=-51.3C h=1.3% p=129.8hPa 405.300 MHz Type=RS41-SGP Radiosonde
KL4XQU18408482022-12-06 11:48:4561.5739-149.556356514148Clb=4.1m/s t=-51.8C h=1.3% p=132.5hPa 405.300 MHz Type=RS41-SGP Radiosonde
KL4XQU18408482022-12-06 11:48:4361.5701-149.562355214015Clb=5.0m/s t=-51.1C h=1.4% p=135.2hPa 405.300 MHz Type=RS41-SGP Radiosonde
KL4XQU18408482022-12-06 11:48:4161.5668-149.568375613892Clb=4.1m/s t=-51.9C h=1.5% p=137.7hPa 405.300 MHz Type=RS41-SGP Radiosonde
KL4XQU18408482022-12-06 11:48:3961.5634-149.573345413771Clb=3.0m/s t=-51.7C h=1.5% p=140.4hPa 405.300 MHz Type=RS41-SGP Radiosonde
KL4XQU18408482022-12-06 11:48:3761.5595-149.579305913645Clb=3.6m/s t=-51.9C h=1.5% p=143.1hPa 405.300 MHz Type=RS41-SGP Radiosonde
KL4XQU18408482022-12-06 11:48:1761.5554-149.584175213514Clb=4.5m/s t=-51.8C h=1.6% p=146.0hPa 405.300 MHz Type=RS41-SGP Radiosonde
KL4XQU18408482022-12-06 11:47:1061.5516-149.586184313377Clb=4.8m/s t=-50.8C h=1.5% p=149.2hPa 405.300 MHz Type=RS41-SGP Radiosonde
KL4XQU18408482022-12-06 11:46:1061.5484-149.58884813231Clb=6.4m/s t=-49.7C h=1.4% p=152.5hPa 405.300 MHz Type=RS41-SGP Radiosonde
KL4XQU18408482022-12-06 11:45:0961.5455-149.591344613079Clb=3.8m/s t=-50.3C h=1.5% p=156.1hPa 405.300 MHz Type=RS41-SGP Radiosonde
KL4XQU18408482022-12-06 11:44:0561.5426-149.594224112941Clb=3.9m/s t=-50.0C h=1.5% p=159.4hPa 405.300 MHz Type=RS41-SGP Radiosonde
KL4XQU18408482022-12-06 11:43:0661.5401-149.597354112801Clb=3.1m/s t=-50.6C h=1.7% p=162.9hPa 405.300 MHz Type=RS41-SGP Radiosonde
KL4XQU18408482022-12-06 11:42:0061.5373-149.601444112664Clb=4.3m/s t=-49.9C h=1.7% p=166.3hPa 405.300 MHz Type=RS41-SGP Radiosonde
KL4XQU18408482022-12-06 11:40:5961.5351-149.605474312529Clb=4.7m/s t=-49.4C h=1.8% p=169.8hPa 405.300 MHz Type=RS41-SGP Radiosonde
KL4XQU18408482022-12-06 11:40:0561.5323-149.611335612374Clb=4.6m/s t=-49.2C h=2.1% p=173.8hPa 405.300 MHz Type=RS41-SGP Radiosonde
KL4XQU18408482022-12-06 11:39:3561.5296-149.62548512170Clb=3.5m/s t=-51.6C h=2.4% p=179.3hPa 405.300 MHz Type=RS41-SGP Radiosonde
KL4XQU18408482022-12-06 11:39:0061.525-149.631489111990Clb=5.4m/s t=-52.5C h=2.8% p=184.4hPa 405.300 MHz Type=RS41-SGP Radiosonde
KL4XQU18408482022-12-06 11:38:2961.5198-149.6414010611804Clb=4.5m/s t=-54.0C h=3.4% p=189.8hPa 405.300 MHz Type=RS41-SGP Radiosonde
KL4XQU18408482022-12-06 11:37:5961.5131-149.652610011619Clb=9.0m/s t=-54.6C h=4.1% p=195.4hPa 405.300 MHz Type=RS41-SGP Radiosonde
KL4XQU18408482022-12-06 11:37:3061.5067-149.656238011435Clb=5.2m/s t=-53.8C h=4.4% p=201.0hPa 405.300 MHz Type=RS41-SGP Radiosonde
KL4XQU18408482022-12-06 11:36:5661.5014-149.661226311259Clb=4.7m/s t=-53.8C h=5.1% p=206.6hPa 405.300 MHz Type=RS41-SGP Radiosonde
KL4XQU18408482022-12-06 11:36:2961.497-149.668417211081Clb=3.8m/s t=-53.6C h=5.9% p=212.4hPa 405.300 MHz Type=RS41-SGP Radiosonde
KL4XQU18408482022-12-06 11:36:2761.4925-149.677458710901Clb=5.3m/s t=-55.0C h=9.3% p=218.6hPa 405.300 MHz Type=RS41-SGP Radiosonde
KL4XQU18408482022-12-06 11:36:2561.4873-149.6863210410831Clb=9.2m/s t=-57.3C h=14.7% p=225.5hPa 405.300 MHz Type=RS41-SGP Radiosonde
KL4XQU18408482022-12-06 11:36:2261.4807-149.693218110494Clb=9.7m/s t=-56.9C h=16.4% p=232.9hPa 405.300 MHz Type=RS41-SGP Radiosonde
KL4XQU18408482022-12-06 11:36:1161.4749-149.696107810294Clb=8.4m/s t=-56.0C h=17.8% p=240.3hPa 405.300 MHz Type=RS41-SGP Radiosonde
KL4XQU18408482022-12-06 11:35:2261.4696-149.699196310126Clb=4.0m/s t=-55.8C h=20.6% p=246.7hPa 405.300 MHz Type=RS41-SGP Radiosonde
KL4XQU18408482022-12-06 11:34:2761.465-149.70435729973Clb=5.0m/s t=-55.8C h=25.9% p=252.8hPa 405.300 MHz Type=RS41-SGP Radiosonde
KL4XQU18408482022-12-06 11:33:2861.4595-149.71544989785Clb=6.8m/s t=-55.8C h=26.2% p=260.4hPa 405.300 MHz Type=RS41-SGP Radiosonde
KL4XQU18408482022-12-06 11:32:2861.4525-149.727361049580Clb=3.1m/s t=-55.5C h=25.3% p=268.9hPa 405.300 MHz Type=RS41-SGP Radiosonde
KL4XQU18408482022-12-06 11:31:4561.4479-149.735381029436Clb=4.6m/s t=-54.6C h=22.3% p=274.9hPa 405.300 MHz Type=RS41-SGP Radiosonde
KL4XQU18408482022-12-06 11:31:1461.4416-149.74432949257Clb=5.0m/s t=-53.5C h=21.0% p=282.8hPa 405.300 MHz Type=RS41-SGP Radiosonde
KL4XQU18408482022-12-06 11:31:1261.4351-149.755371139074Clb=5.3m/s t=-52.4C h=22.0% p=290.9hPa 405.301 MHz Type=RS41-SGP Radiosonde
KL4XQU18408482022-12-06 11:31:1061.4284-149.765381048883Clb=6.7m/s t=-50.9C h=25.0% p=299.5hPa 405.301 MHz Type=RS41-SGP Radiosonde
KL4XQU18408482022-12-06 11:30:4561.4215-149.774351068679Clb=8.0m/s t=-49.7C h=32.5% p=309.0hPa 405.301 MHz Type=RS41-SGP Radiosonde
KL4XQU18408482022-12-06 11:29:5561.4145-149.784341078482Clb=6.1m/s t=-48.1C h=30.6% p=318.4hPa 405.301 MHz Type=RS41-SGP Radiosonde
KL4XQU18408482022-12-06 11:29:0261.4078-149.794351028293Clb=6.6m/s t=-46.3C h=18.7% p=327.6hPa 405.301 MHz Type=RS41-SGP Radiosonde
KL4XQU18408482022-12-06 11:28:1261.4009-149.804381068104Clb=7.5m/s t=-44.6C h=14.4% p=337.0hPa 405.301 MHz Type=RS41-SGP Radiosonde
KL4XQU18408482022-12-06 11:27:3761.3943-149.814381117918Clb=5.7m/s t=-43.2C h=12.0% p=346.5hPa 405.301 MHz Type=RS41-SGP Radiosonde
KL4XQU18408482022-12-06 11:27:0661.3875-149.823301007731Clb=4.5m/s t=-42.1C h=13.1% p=356.1hPa 405.301 MHz Type=RS41-SGP Radiosonde
KL4XQU18408482022-12-06 11:26:3561.3781-149.833321117529Clb=5.0m/s t=-41.7C h=13.2% p=367.0hPa 405.301 MHz Type=RS41-SGP Radiosonde
KL4XQU18408482022-12-06 11:26:1961.3715-149.841291287399Clb=7.1m/s t=-41.9C h=73.4% p=374.1hPa 405.301 MHz Type=RS41-SGP Radiosonde
KL4XQU18408482022-12-06 11:26:1361.3628-149.849171267230Clb=5.1m/s t=-40.4C h=83.3% p=383.6hPa 405.301 MHz Type=RS41-SGP Radiosonde
KL4XQU18408482022-12-06 11:25:3261.3543-149.856131067057Clb=8.1m/s t=-38.8C h=78.0% p=393.3hPa 405.301 MHz Type=RS41-SGP Radiosonde
KL4XQU18408482022-12-06 11:24:4561.3458-149.861151196900Clb=3.4m/s t=-37.4C h=83.2% p=402.6hPa 405.301 MHz Type=RS41-SGP Radiosonde
KL4XQU18408482022-12-06 11:23:5961.3373-149.866221196735Clb=6.8m/s t=-35.9C h=80.0% p=412.3hPa 405.301 MHz Type=RS41-SGP Radiosonde
KL4XQU18408482022-12-06 11:23:2861.3291-149.872191026573Clb=5.8m/s t=-34.5C h=82.1% p=421.9hPa 405.301 MHz Type=RS41-SGP Radiosonde
KL4XQU18408482022-12-06 11:22:5761.3162-149.882281156312Clb=6.1m/s t=-32.5C h=84.4% p=437.9hPa 405.301 MHz Type=RS41-SGP Radiosonde
KL4XQU18408482022-12-06 11:22:2661.3133-149.885301026241Clb=4.7m/s t=-31.9C h=86.6% p=442.5hPa 405.301 MHz Type=RS41-SGP Radiosonde
KL4XQU18408482022-12-06 11:21:5561.3064-149.89126986070Clb=4.2m/s t=-30.5C h=87.4% p=453.3hPa 405.301 MHz Type=RS41-SGP Radiosonde
KL4XQU18408482022-12-06 11:21:4761.2996-149.89621945882Clb=8.6m/s t=-29.0C h=87.2% p=465.3hPa 405.301 MHz Type=RS41-SGP Radiosonde
KL4XQU18408482022-12-06 11:21:0861.293-149.901171025704Clb=6.7m/s t=-27.7C h=90.9% p=476.9hPa 405.301 MHz Type=RS41-SGP Radiosonde
KL4XQU18408482022-12-06 11:20:2861.2832-149.90819945433Clb=5.7m/s t=-25.7C h=88.5% p=495.3hPa 405.301 MHz Type=RS41-SGP Radiosonde
KL4XQU18408482022-12-06 11:19:5161.2805-149.91124725347Clb=4.4m/s t=-25.2C h=91.5% p=501.2hPa 405.301 MHz Type=RS41-SGP Radiosonde
KL4XQU18408482022-12-06 11:19:2061.2745-149.91632765172Clb=5.2m/s t=-23.8C h=89.3% p=513.6hPa 405.301 MHz Type=RS41-SGP Radiosonde
KL4XQU18408482022-12-06 11:18:4961.2694-149.9224874998Clb=4.9m/s t=-22.5C h=87.8% p=525.6hPa 405.301 MHz Type=RS41-SGP Radiosonde
KL4XQU18408482022-12-06 11:18:1861.2639-149.92529674845Clb=5.5m/s t=-21.5C h=90.7% p=536.9hPa 405.301 MHz Type=RS41-SGP Radiosonde
KL4XQU18408482022-12-06 11:17:4761.2588-149.92918814673Clb=6.2m/s t=-20.4C h=89.2% p=549.4hPa 405.301 MHz Type=RS41-SGP Radiosonde
KL4XQU18408482022-12-06 11:17:3161.2537-149.93420744503Clb=4.1m/s t=-19.2C h=92.1% p=562.3hPa 405.301 MHz Type=RS41-SGP Radiosonde
KL4XQU18408482022-12-06 11:16:5861.2488-149.93824524333Clb=6.1m/s t=-18.0C h=91.6% p=-1.0hPa 405.301 MHz Type=RS41 Radiosonde
KL4XQU18408482022-12-06 11:16:1661.2439-149.94217744174Clb=5.5m/s t=-273.0C h=-1.0% p=-1.0hPa 405.301 MHz Type=RS41 Radiosonde